Terminal Aerodrome Forecast
Issued by NWS

Home | Current Version | Previous Version | Text Only | Print | Product List | Glossary On
Versions: 1 2 3 4 5 6 7 8 9 10 11 12
980
FTUS42 TJSJ 181135
TAFJPS
TAF
TJPS 181135Z 1812/1912 07007KT P6SM FEW030
     FM181400 12010KT P6SM FEW030
     FM181700 15010G15KT P6SM VCSH SCT030
     FM182200 07007KT P6SM FEW030 FEW050
      AMD NOT SKED TIL 190300=

USA.gov is the U.S. government's official web portal to all federal, state and local government web resources and services.